Search for airport 
image banner adimage banner adimage banner ad
image banner ad

91CA - Devers Substation

Located in Desert Hot Springs, United States

ICAO - 91CA, IATA -

Data provided by Airmate  

General information

Coordinates: N33°56'24" W116°34'29"
Elevation is 1150 feet MSL.
Magnetic variation is 14° East
View others Airports in California

Operational data

Special qualification required
Current time UTC:
Current local time:
Weather at : KPSP - Palm Springs Intl ( 14 km )
METAR: KPSP 211253Z 02003KT 10SM CLR 27/18 A2984 RMK AO2 SLP101 T02720183 $
TAF: KPSP 211140Z 2112/2212 13006KT P6SM SKC FM212100 32012G20KT P6SM SKC FM220000 33015G28KT P6SM SKC FM220600 VRB04KT P6SM SKC
View NOTAMs / SUP AIP / TFR affecting this airport [VIEW]
Communications frequencies: [VIEW]

Runways:

Airport contact information

Address: Desert Hot Springs United States

Satellite view of 91CA